Home > Products > Valid Products > MTR

000
SAZS31 NSTU 190258
MTRPPG
METAR NSTU 190251Z 11015G20KT 6SM -SHRA SCT015TCU BKN035 OVC080
28/25 A2970 RMK SHRAB48 TCU ALQDS SLP058 60001 8/87/ T02760254 57010=




000
SAZS31 NSTU 190207
MTRPPG
METAR NSTU 190050Z 11018G24KT 5SM -SHRA SCT009 BKN016TCU OVC035
28/25 A2972 RMK SHRAB48 TCU ALQDS SLP064 T02840253=




000
SAZS31 NSTU 190156
MTRPPG
METAR NSTU 190151Z 11016KT 5SM SCT018TCU BKN030 OVC080 28/26 A2970
RMK SHRAE15 TCU ALQDS SLP059 T02820258=




000
SAZS31 NSTU 190156
MTRPPG
METAR NSTU 190151Z 11016KT 5SM SCT018TCU BKN030 OVC080 28/26 A2970
RMK SHRAE15 TCU ALQDS SLP059 T02820258=




000
SAZS31 NSTU 190003
MTRPPG
METAR NSTU 182350Z 09015G21KT 11SM SCT018TCU BKN030 OVC065 29/26
A2973 RMK SHRAE25 TCU ALQDS SLP068 60081 8/81/ T02910262 10291 20259
57020=




000
SAZS31 NSTU 182155
MTRPPG
METAR NSTU 182150Z 10018KT 4SM SHRA SCT008 BKN017TCU OVC040 26/25
A2978 RMK TSB13E43 TCU ALQDS SLP085 T02590247=




000
SAZS31 NSTU 182058
MTRPPG
METAR NSTU 182052Z 08017G24KT 2SM SHRA SCT010 BKN017TCU OVC035 27/25
A2979 RMK SHRAB33 TCU ALQDS SLP088 60025 8/8// T02650253 53002=




000
SAZS31 NSTU 181956
MTRPPG
METAR NSTU 181950Z 11018G25KT 11SM -SHRA SCT015TCU BKN035 OVC080
26/25 A2981 RMK TCU ALQDS SLP095 T02620248=




000
SAZS31 NSTU 181856
MTRPPG
METAR NSTU 181850Z 14023KT 11SM -SHRA SCT015TCU BKN035 OVC080 27/25
A2979 RMK SHRAB1754 TCU ALQDS SLP090 T02680251=




000
SAZS31 NSTU 181802
MTRPPG
METAR NSTU 181752Z 13016KT 11SM SCT015TCU BKN035 BKN080 28/25 A2978
RMK TCU ALQDS SLP086 60011 8/870 T02770251 10281 20266 51008=




000
SAZS31 NSTU 181701
MTRPPG
METAR NSTU 181657Z 13015KT 12SM SCT015 BKN040 OVC200 27/25 A2976 RMK
 SHRAB10E45 SLP080 T02740253=




000
SAZS31 NSTU 181554
MTRPPG
METAR NSTU 181550Z 11013KT 10SM SCT020 BKN040 BKN100 27/25 A2975 RMK
 SLP076 T02660246=




000
SAZS31 NSTU 181554
MTRPPG
METAR NSTU 181452Z 14012KT 12SM SCT020 SCT120 28/25 A2976 RMK 8/170
56017=




000
SAZS31 NSTU 181401
MTRPPG
METAR NSTU 181352Z 14014KT 12SM SCT020 SCT120 28/25 A2976 RMK SLP078
 T02750247=




000
SAZS31 NSTU 181401
MTRPPG
METAR NSTU 181352Z 14014KT 12SM SCT020 SCT120 28/25 A2976 RMK SLP078
 T02750247=




000
SAZS31 NSTU 181341
MTRPPG
METAR NSTU 181250Z 15011KT 12SM FEW018 SCT120 27/25 A2977 RMK SLP081
 T02720251=




000
SAZS31 NSTU 181341
MTRPPG
METAR NSTU 181250Z 15011KT 12SM FEW018 SCT120 27/25 A2977 RMK SLP081
 T02720251=




000
SAZS31 NSTU 181159
MTRPPG
METAR NSTU 181050Z 14015KT 12SM FEW018 SCT120 28/25 A2983 RMK SLP103
 T02800247 403050252=




000
SAZS31 NSTU 181004
MTRPPG
METAR NSTU 180951Z 15012KT 12SM SCT018 BKN050 BKN100 28/25 A2984 RMK
 SLP107 T02790247=




000
SAZS31 NSTU 180858
MTRPPG
METAR NSTU 180853Z 15012KT 12SM SCT018 BKN050 OVC100 28/25 A2984 RMK
SLP107 8/17/ T02800250 52005=




000
SAZS31 NSTU 180858
MTRPPG
METAR NSTU 180853Z 15012KT 12SM SCT018 BKN050 OVC100 28/25 A2984 RMK
SLP107 8/17/ T02800250 52005=




000
SAZS31 NSTU 180757
MTRPPG
METAR NSTU 180751Z 16013KT 12SM SCT018 BKN050 OVC100 28/25 A2984 RMK
SLP105 T02820249=




000
SAZS31 NSTU 180757
MTRPPG
METAR NSTU 180751Z 16013KT 12SM SCT018 BKN050 OVC100 28/25 A2984 RMK
SLP105 T02820249=




000
SAZS31 NSTU 180706
MTRPPG
METAR NSTU 180652Z 16014KT 12SM SCT018 BKN050 OVC100 28/25 A2984 RMK
SLP105 T02780249=




000
SAZS31 NSTU 180613
MTRPPG
METAR NSTU 180550Z 16011KT 12SM SCT018 BKN050 OVC100 28/25 A2983
RMK SLP102 8/87/ T02840249 10303 20284 53010=





000
SAZS31 NSTU 180501
MTRPPG
METAR NSTU 180455Z 16011KT 12SM SCT018 BKN050 OVC100 29/25 A2981 RMK
SLP097 T02880248=





000
SAZS31 NSTU 180401
MTRPPG
METAR NSTU 180356Z 18010KT 12SM SCT019 BKN050 BKN100 30/25 A2980 RMK
SLP093 T02950248=





000
SAZS31 NSTU 180315
MTRPPG
METAR NSTU 180250Z 17010KT 12SM SCT019 BKN100 30/25 A2980 RMK SLP091
8/170 T02950251 57019=




000
SAZS31 NSTU 180155
MTRPPG
METAR NSTU 180152Z 18009KT 12SM SCT019 BKN100 30/25 A2981 RMK SLP097
T03010254=




000
SAZS31 NSTU 180155
MTRPPG
METAR NSTU 180152Z 18009KT 12SM SCT019 BKN100 30/25 A2981 RMK SLP097
T03010254=




000
SAZS31 NSTU 180052
MTRPPG
METAR NSTU 180050Z 20009KT 12SM SCT025 SCT150 BKN200 BKN250 30/25
A2983 RMK SLP102 T03020250=




000
SAZS31 NSTU 172358
MTRPPG
METAR NSTU 172350Z 19010KT 12SM SCT025 SCT040 BKN150 BKN200 30/25
A2985 RMK SLP110 60001 8/480 T03030247 10305 20253 56017=




000
SAZS31 NSTU 172250
MTRPPG
METAR NSTU 172250Z 19010KT 12SM SCT019 BKN040 BKN150 31/25 A2988 RMK
SLP117 T03050252=




000
SAZS31 NSTU 172154
MTRPPG
METAR NSTU 172151Z 20007KT 12SM SCT020 BKN040 BKN150 30/25 A2989 RMK
SLP122 T02990254=




000
SAZS31 NSTU 172154
MTRPPG
METAR NSTU 172151Z 20007KT 12SM SCT020 BKN040 BKN150 30/25 A2989 RMK
SLP122 T02990254=




000
SAZS31 NSTU 171951
MTRPPG
METAR NSTU 171950Z VRB03KT 12SM -SHRA SCT018 BKN040 OVC100 29/25
A2991 RMK SHRAB45 SLP129 T02850252=




000
SAZS31 NSTU 171852
MTRPPG
METAR NSTU 171850Z VRB03KT 12SM SCT019 BKN040 OVC100 27/25 A2991 RMK
SHRAE38 SLP129 T02680247=




000
SAZS31 NSTU 171652
MTRPPG
METAR NSTU 171650Z 25007KT 10SM FEW008 SCT018 BKN040 OVC100 25/23
A2988 RMK SLP119 T02520232=




000
SAZS31 NSTU 171555
MTRPPG
METAR NSTU 171553Z 18007KT 10SM BKN020 BKN040 OVC100 26/25 A2985 RMK
SLP110 T02640245=




000
SAZS31 NSTU 171458
MTRPPG
METAR NSTU 171457Z VRB03KT 10SM SCT020 BKN040 BKN100 27/24 A2983 RMK
SLP103 8/870 T02660243 57007=




000
SAZS31 NSTU 171356
MTRPPG
METAR NSTU 171354Z VRB03KT 10SM SCT020 BKN040 OVC100 27/25 A2984 RMK
SLP103 T02670246=




000
SAZS31 NSTU 171257
MTRPPG
METAR NSTU 171256Z VRB04KT 10SM SCT020 BKN040 OVC100 27/25 A2984 RMK
SLP105 T02710245=




000
SAZS31 NSTU 171207
MTRPPG
METAR NSTU 171150Z VRB04KT 10SM FEW020 SCT040 BKN100 27/24 A2985 RMK
SLP110 60000 70039 8/870 T02690240 10276 20269 57010=




000
SAZS31 NSTU 171052
MTRPPG
METAR NSTU 171050Z 26006KT 10SM FEW020 SCT040 BKN100 27/25 A2987 RMK
SLP117 T02710251 403070255=




000
SAZS31 NSTU 170957
MTRPPG
METAR NSTU 170955Z VRB02KT 10SM FEW020 SCT040 OVC090 27/25 A2989 RMK
 SLP122 T02730249=




000
SAZS31 NSTU 170854
MTRPPG
METAR NSTU 170852Z VRB03KT 10SM FEW020 SCT040 OVC090 27/25 A2988 RMK
 SLP120 60000 8/47/ T02700247 51014=




000
SAZS31 NSTU 170854
MTRPPG
METAR NSTU 170852Z VRB03KT 10SM FEW020 SCT040 OVC090 27/25 A2988 RMK
 SLP120 60000 8/47/ T02700247 51014=




000
SAZS31 NSTU 170800
MTRPPG
METAR NSTU 170758Z VRB02KT 10SM FEW020 SCT040 OVC090 27/25 A2987 RMK
 SHRAE05 SLP115 T02730247=




000
SAZS31 NSTU 170800
MTRPPG
METAR NSTU 170758Z VRB02KT 10SM FEW020 SCT040 OVC090 27/25 A2987 RMK
 SHRAE05 SLP115 T02730247=




000
SAZS31 NSTU 170656
MTRPPG
METAR NSTU 170654Z VRB03KT 10SM -SHRA FEW020 SCT040 OVC090 28/25
A2986 RMK SLP112 T02760249=




000
SAZS31 NSTU 170557
MTRPPG
METAR NSTU 170553Z VRB03KT 11SM -SHRA FEW020 FEW040 BKN090 28/26
A2984 RMK SLP107 60022 8/470 T02750256 10299 20275 51020=




000
SAZS31 NSTU 170456
MTRPPG
METAR NSTU 170453Z 36006KT 11SM -SHRA SCT016TCU BKN100 28/25 A2982
RMK TCU ALQDS SLP098 T02750253=




000
SAZS31 NSTU 170456
MTRPPG
METAR NSTU 170453Z 36006KT 11SM -SHRA SCT016TCU BKN100 28/25 A2982
RMK TCU ALQDS SLP098 T02750253=




000
SAZS31 NSTU 170357
MTRPPG
METAR NSTU 170351Z VRB03KT 11SM -SHRA SCT016TCU BKN100 28/25 A2980
RMK SHRAB45 TCU ALQDS SLP091 T02840253=




000
SAZS31 NSTU 170357
MTRPPG
METAR NSTU 170351Z VRB03KT 11SM -SHRA SCT016TCU BKN100 28/25 A2980
RMK SHRAB45 TCU ALQDS SLP091 T02840253=




000
SAZS31 NSTU 170257
MTRPPG
METAR NSTU 170254Z 20005KT 12SM FEW019TCU BKN100 30/26 A2979 RMK TCU
ALQDS SLP086 8/210 T02950256 57007=




000
SAZS31 NSTU 170155
MTRPPG
METAR NSTU 170153Z VRB03KT 12SM FEW023 BKN100 30/25 A2979 RMK SLP088
 T02970246=




000
SAZS31 NSTU 170133
MTRPPG
METAR NSTU 170057Z 19006KT 12SM FEW023 SCT045 BKN100 30/25 A2980 RMK
 SLP093 T02990250=




000
SAZS31 NSTU 162359
MTRPPG
METAR NSTU 162355Z 16007KT 12SM FEW023 SCT100 BKN200 29/25 A2981 RMK
 SHRAE52 SLP093 60017 8/175 T02920246 10307 20263 56014=




000
SAZS31 NSTU 162256
MTRPPG
METAR NSTU 162250Z 26006KT 11SM -SHRA SCT018TCU BKN100 BKN200 26/24
A2984 RMK SHRAB05 TCU ALQDS SLP105 T02630242=




000
SAZS31 NSTU 162155
MTRPPG
METAR NSTU 162152Z 11007KT 12SM VCSH SCT018TCU BKN100 BKN200 31/26
A2984 RMK VCSH W TCU ALQDS SLP107 T03070255=




000
SAZS31 NSTU 162057
MTRPPG
METAR NSTU 162054Z VRB05KT 12SM FEW022 SCT100 BKN200 31/25 A2985 RMK
SLP107 8/175 T03070251 51005=




000
SAZS31 NSTU 162016
MTRPPG
METAR NSTU 161951Z VRB03KT 12SM FEW020 FEW045 SCT100 29/24 A2984 RMK
 SLP107 T02900240=




000
SAZS31 NSTU 161906
MTRPPG
METAR NSTU 161851Z VRB02KT 12SM FEW015 SCT100 28/25 A2983 RMK CB
DSNT NE SLP103 T02800245=




000
SAZS31 NSTU 161752
MTRPPG
METAR NSTU 161750Z VRB04KT 12SM SCT015CB BKN100 27/25 A2983 RMK CB
DNST N SLP102 8/370 T02720250 10272 20255 51022=




000
SAZS31 NSTU 161655
MTRPPG
METAR NSTU 161652Z VRB03KT 12SM VCSH SCT017TCU BKN110 26/25 A2981
RMK VCSH NE-E TCU VC NE-E SLP095 T02590246=




000
SAZS31 NSTU 161553
MTRPPG
METAR NSTU 161551Z VRB03KT 10SM SCT018 BKN110 26/24 A2979 RMK SLP088
T02570244=




000
SAZS31 NSTU 161553
MTRPPG
METAR NSTU 161551Z VRB03KT 10SM SCT018 BKN110 26/24 A2979 RMK SLP088
T02570244=




000
SAZS31 NSTU 161459
MTRPPG
METAR NSTU 161456Z VRB02KT 10SM SCT016 BKN110 26/24 A2976 RMK SLP080
8/170 T02550240 56005=




000
SAZS31 NSTU 161352
MTRPPG
METAR NSTU 161351Z 00000KT 10SM SCT016 BKN110 26/24 A2975 RMK SLP076
T02590242=




000
SAZS31 NSTU 161251
MTRPPG
METAR NSTU 161250Z 00000KT 10SM SCT016 BKN110 26/24 A2977 RMK SLP080
T02630242=




000
SAZS31 NSTU 161153
MTRPPG
METAR NSTU 161150Z 00000KT 10SM SCT016 BKN110 27/24 A2978 RMK SLP085
70011 8/170 T02670243 10275 20263 56005=




000
SAZS31 NSTU 161051
MTRPPG
METAR NSTU 161050Z 00000KT 10SM SCT016 BKN110 27/24 A2979 RMK SLP088
T02660244 403080248=




000
SAZS31 NSTU 160955
MTRPPG
METAR NSTU 160954Z VRB02KT 10SM FEW016 27/24 A2980 RMK SLP091
T02650243=




000
SAZS31 NSTU 160857
MTRPPG
METAR NSTU 160854Z 00000KT 10SM FEW016 27/25 A2979 RMK SLP090 8/100
T02740247 51015=




000
SAZS31 NSTU 160755
MTRPPG
METAR NSTU 160752Z 00000KT 10SM FEW016 26/25 A2979 RMK OCNL LTGIC
DSNT S CB DSNT S SLP088 T02630245=




000
SAZS31 NSTU 160754
MTRPPG
METAR NSTU 160657Z VRB02KT 10SM SCT020 BKN120 27/25 A2977 RMK SLP081
 T02680249=




000
SAZS31 NSTU 160601
MTRPPG
METAR NSTU 160557Z VRB04KT 11SM SCT018TCU BKN120 28/24 A2975 RMK
SHRAB15E56 TCU E-SE SLP075 60011 8/270 T02750242 10308 20275 51017=




000
SAZS31 NSTU 160500
MTRPPG
METAR NSTU 160452Z 24006KT 12SM SCT021 BKN110 30/24 A2972 RMK SLP066
 T02960238=




000
SAZS31 NSTU 160500
MTRPPG
METAR NSTU 160452Z 24006KT 12SM SCT021 BKN110 30/24 A2972 RMK SLP066
 T02960238=




    US Dept of Commerce
    National Oceanic and Atmospheric Administration
    National Weather Service
    1325 East West Highway
    Silver Spring, MD 20910
    Page Author: NWS Internet Services Team
Disclaimer
Information Quality
Credits
Glossary
Privacy Policy
Freedom of Information Act (FOIA)
About Us
Career Opportunities